Terminal Aerodrome Forecast
Issued by NWS

Home | Current Version | Previous Version | Text Only | Print | Product List | Glossary On
Versions: 1 2 3 4 5 6 7 8 9 10 11 12 13 14 15 16
000
FTUS46 KLOX 290005 AAA
TAFVNY
TAF AMD
KVNY 290005Z 2900/2924 15009KT P6SM SKC
     FM290400 12003KT P6SM SKC
     FM291300 VRB03KT 6SM BR SCT004
     FM291600 13003KT P6SM FEW007
     FM292000 15009KT P6SM BKN180=

USA.gov is the U.S. government's official web portal to all federal, state and local government web resources and services.